createdAt,value
2024-02-14T00:00:16.032Z,44.90
2024-02-14T00:03:04.895Z,44.90
2024-02-14T00:05:54.010Z,44.80
2024-02-14T00:08:42.666Z,44.80
2024-02-14T00:11:31.257Z,44.80
2024-02-14T00:14:20.670Z,44.70
2024-02-14T00:17:11.807Z,44.70
2024-02-14T00:20:00.379Z,44.70
2024-02-14T00:22:48.776Z,44.70
2024-02-14T00:25:37.079Z,44.70
2024-02-14T00:28:28.490Z,44.80
2024-02-14T00:31:17.137Z,44.70
2024-02-14T00:34:07.362Z,44.70
2024-02-14T00:36:55.872Z,44.70
2024-02-14T00:39:44.204Z,44.70
2024-02-14T00:42:32.570Z,44.70
2024-02-14T00:45:21.070Z,44.70
2024-02-14T00:48:12.566Z,44.70
2024-02-14T00:51:02.421Z,44.60
2024-02-14T00:53:50.850Z,44.60
2024-02-14T00:56:39.196Z,44.60
2024-02-14T00:59:27.782Z,44.60
2024-02-14T01:02:16.183Z,44.60
2024-02-14T01:05:05.890Z,44.60
2024-02-14T01:07:56.156Z,44.60
2024-02-14T01:10:44.800Z,44.60
2024-02-14T01:13:33.256Z,44.60
2024-02-14T01:16:21.664Z,44.60
2024-02-14T01:19:10.274Z,44.50
2024-02-14T01:21:59.316Z,44.50
2024-02-14T01:24:49.267Z,44.50
2024-02-14T01:27:37.734Z,44.60
2024-02-14T01:30:26.600Z,44.60
2024-02-14T01:33:15.223Z,44.60
2024-02-14T01:36:04.042Z,44.60
2024-02-14T01:38:52.771Z,44.60
2024-02-14T01:41:47.629Z,44.60
2024-02-14T01:44:37.656Z,44.60
2024-02-14T01:47:26.429Z,44.60
2024-02-14T01:50:15.321Z,44.60
2024-02-14T01:53:04.400Z,44.60
2024-02-14T01:55:53.647Z,44.70
2024-02-14T01:58:44.229Z,44.70
2024-02-14T02:01:32.786Z,44.70
2024-02-14T02:04:22.010Z,44.70
2024-02-14T02:07:10.457Z,44.60
2024-02-14T02:09:59.128Z,44.70
2024-02-14T02:12:47.569Z,44.60
2024-02-14T02:15:38.475Z,44.60
2024-02-14T02:18:27.914Z,44.60
2024-02-14T02:21:16.686Z,44.50
2024-02-14T02:24:08.062Z,44.60
2024-02-14T02:26:58.154Z,44.70
2024-02-14T02:29:47.311Z,44.60
2024-02-14T02:32:35.997Z,44.70
2024-02-14T02:35:25.811Z,44.70
2024-02-14T02:38:15.005Z,44.70
2024-02-14T02:41:07.662Z,44.60
2024-02-14T02:43:56.101Z,44.60
2024-02-14T02:46:47.267Z,44.60
2024-02-14T02:49:38.454Z,44.60
2024-02-14T02:52:26.916Z,44.60
2024-02-14T02:55:15.773Z,44.70
2024-02-14T02:58:06.759Z,44.70
2024-02-14T03:00:56.852Z,44.70
2024-02-14T03:03:45.498Z,44.70
2024-02-14T03:06:34.124Z,44.70
2024-02-14T03:09:23.559Z,44.60
2024-02-14T03:12:12.548Z,44.70
2024-02-14T03:15:06.161Z,44.70
2024-02-14T03:17:54.722Z,44.60
2024-02-14T03:20:43.269Z,44.60
2024-02-14T03:23:32.221Z,44.70
2024-02-14T03:26:20.529Z,44.70
2024-02-14T03:29:09.333Z,44.70
2024-02-14T03:31:59.857Z,44.70
2024-02-14T03:34:48.269Z,44.70
2024-02-14T03:37:38.518Z,44.70
2024-02-14T03:40:27.090Z,44.70
2024-02-14T03:43:15.778Z,44.70
2024-02-14T03:46:04.170Z,44.70
2024-02-14T03:48:54.306Z,44.70
2024-02-14T03:51:42.905Z,44.70
2024-02-14T03:54:31.325Z,44.80
2024-02-14T03:57:19.819Z,44.80
2024-02-14T04:00:12.187Z,44.80
2024-02-14T04:03:01.136Z,44.80
2024-02-14T04:05:51.039Z,44.70
2024-02-14T04:08:39.842Z,44.80
2024-02-14T04:11:28.223Z,44.90
2024-02-14T04:14:16.645Z,44.80
2024-02-14T04:17:06.516Z,44.70
2024-02-14T04:19:55.202Z,44.70
2024-02-14T04:22:45.913Z,44.70
2024-02-14T04:25:34.857Z,44.80
2024-02-14T04:28:23.141Z,44.70
2024-02-14T04:31:11.688Z,44.80
2024-02-14T04:34:00.247Z,44.80
2024-02-14T04:36:48.705Z,44.80
2024-02-14T04:39:38.482Z,44.90
2024-02-14T04:42:26.836Z,44.90
2024-02-14T04:45:15.942Z,44.80
2024-02-14T04:48:04.861Z,44.80
2024-02-14T04:50:53.785Z,44.80
2024-02-14T04:53:42.395Z,44.90
2024-02-14T04:56:32.169Z,44.90
2024-02-14T04:59:20.659Z,44.80
2024-02-14T05:02:10.319Z,44.80
2024-02-14T05:04:58.746Z,44.90
2024-02-14T05:07:47.527Z,45.00
2024-02-14T05:10:36.164Z,44.90
2024-02-14T05:13:25.982Z,44.90
2024-02-14T05:16:14.442Z,44.90
2024-02-14T05:19:03.025Z,45.00
2024-02-14T05:21:51.824Z,45.00
2024-02-14T05:24:40.297Z,44.90
2024-02-14T05:27:28.759Z,44.90
2024-02-14T05:30:18.742Z,44.90
2024-02-14T05:33:07.462Z,44.90
2024-02-14T05:35:55.869Z,45.00
2024-02-14T05:38:44.854Z,44.90
2024-02-14T05:41:34.154Z,44.90
2024-02-14T05:44:23.835Z,44.90
2024-02-14T05:47:13.615Z,45.00
2024-02-14T05:50:02.127Z,45.00
2024-02-14T05:52:50.478Z,45.10
2024-02-14T05:55:38.819Z,45.00
2024-02-14T05:58:29.812Z,45.00
2024-02-14T06:01:19.353Z,45.00
2024-02-14T06:04:09.140Z,45.20
2024-02-14T06:06:57.719Z,45.10
2024-02-14T06:09:46.805Z,45.00
2024-02-14T06:12:35.262Z,45.00
2024-02-14T06:15:23.494Z,45.10
2024-02-14T06:18:11.950Z,45.10
2024-02-14T06:21:01.844Z,45.10
2024-02-14T06:23:50.717Z,45.10
2024-02-14T06:26:39.233Z,45.10
2024-02-14T06:29:27.773Z,45.10
2024-02-14T06:32:16.338Z,45.00
2024-02-14T06:35:05.333Z,45.00
2024-02-14T06:37:59.704Z,45.10
2024-02-14T06:40:52.706Z,45.10
2024-02-14T06:43:41.842Z,45.10
2024-02-14T06:46:30.274Z,45.20
2024-02-14T06:49:19.066Z,45.10
2024-02-14T06:52:08.143Z,45.10
2024-02-14T06:54:57.826Z,45.10
2024-02-14T06:57:46.347Z,45.20
2024-02-14T07:00:35.061Z,45.20
2024-02-14T07:03:23.681Z,45.10
2024-02-14T07:06:12.188Z,45.10
2024-02-14T07:09:00.905Z,45.10
2024-02-14T07:11:52.098Z,45.20
2024-02-14T07:14:40.836Z,45.10
2024-02-14T07:17:29.336Z,45.10
2024-02-14T07:20:18.569Z,45.00
2024-02-14T07:23:07.029Z,45.00
2024-02-14T07:25:55.593Z,44.90
2024-02-14T07:28:45.468Z,44.90
2024-02-14T07:31:35.496Z,44.90
2024-02-14T07:34:24.072Z,44.90
2024-02-14T07:37:12.674Z,44.90
2024-02-14T07:40:01.107Z,44.90
2024-02-14T07:42:49.590Z,44.90
2024-02-14T07:45:39.476Z,44.90
2024-02-14T07:48:28.024Z,44.90
2024-02-14T07:51:16.871Z,44.90
2024-02-14T07:54:05.372Z,45.00
2024-02-14T07:56:53.846Z,45.00
2024-02-14T07:59:42.249Z,44.90
2024-02-14T08:02:32.138Z,44.90
2024-02-14T08:05:20.684Z,44.90
2024-02-14T08:08:09.190Z,44.90
2024-02-14T08:10:57.468Z,44.90
2024-02-14T08:13:45.879Z,44.90
2024-02-14T08:16:34.210Z,44.90
2024-02-14T08:19:24.436Z,44.90
2024-02-14T08:22:13.572Z,44.90
2024-02-14T08:25:02.071Z,44.90
2024-02-14T08:27:50.577Z,44.90
2024-02-14T08:30:39.171Z,44.90
2024-02-14T08:33:27.635Z,45.00
2024-02-14T08:36:20.779Z,45.00
2024-02-14T08:39:10.319Z,45.00
2024-02-14T08:41:58.666Z,45.00
2024-02-14T08:44:47.172Z,45.00
2024-02-14T08:47:35.781Z,45.00
2024-02-14T08:50:24.446Z,45.00
2024-02-14T08:53:14.846Z,45.10
2024-02-14T08:56:03.321Z,45.10
2024-02-14T08:58:51.775Z,45.20
2024-02-14T09:01:40.444Z,45.20
2024-02-14T09:04:29.300Z,45.30
2024-02-14T09:07:18.365Z,45.30
2024-02-14T09:10:08.962Z,45.30
2024-02-14T09:12:57.321Z,45.40
2024-02-14T09:15:45.754Z,45.40
2024-02-14T09:18:34.213Z,45.40
2024-02-14T09:21:23.153Z,45.40
2024-02-14T09:24:12.739Z,45.50
2024-02-14T09:27:03.840Z,45.60
2024-02-14T09:29:52.396Z,45.70
2024-02-14T09:32:40.931Z,45.70
2024-02-14T09:35:29.515Z,45.90
2024-02-14T09:38:18.193Z,46.00
2024-02-14T09:41:13.596Z,46.00
2024-02-14T09:44:03.425Z,46.10
2024-02-14T09:46:52.562Z,46.20
2024-02-14T09:49:42.223Z,46.30
2024-02-14T09:52:31.468Z,46.30
2024-02-14T09:55:20.363Z,46.50
2024-02-14T09:58:09.287Z,46.70
2024-02-14T10:00:59.083Z,46.70
2024-02-14T10:03:47.475Z,46.80
2024-02-14T10:06:35.838Z,47.00
2024-02-14T10:09:24.595Z,47.10
2024-02-14T10:12:13.249Z,47.20
2024-02-14T10:15:02.646Z,47.30
2024-02-14T10:17:52.696Z,47.30
2024-02-14T10:20:44.667Z,47.30
2024-02-14T10:23:33.839Z,47.50
2024-02-14T10:26:22.441Z,47.70
2024-02-14T10:29:11.811Z,47.90
2024-02-14T10:32:00.181Z,48.00
2024-02-14T10:34:50.436Z,48.20
2024-02-14T10:37:39.214Z,48.00
2024-02-14T10:40:28.615Z,48.10
2024-02-14T10:43:16.885Z,48.30
2024-02-14T10:46:10.503Z,48.30
2024-02-14T10:49:05.765Z,48.20
2024-02-14T10:52:01.157Z,48.30
2024-02-14T10:54:58.705Z,48.30
2024-02-14T10:57:48.883Z,48.40
2024-02-14T11:00:37.363Z,48.90
2024-02-14T11:03:27.442Z,48.60
2024-02-14T11:06:18.834Z,48.50
2024-02-14T11:09:09.958Z,48.10
2024-02-14T11:12:03.444Z,47.80
2024-02-14T11:14:53.921Z,47.50
2024-02-14T11:17:44.250Z,47.50
2024-02-14T11:20:34.838Z,47.70
2024-02-14T11:23:24.645Z,47.70
2024-02-14T11:26:18.211Z,47.80
2024-02-14T11:29:06.789Z,48.30
2024-02-14T11:32:02.315Z,48.30
2024-02-14T11:34:56.667Z,48.70
2024-02-14T11:37:45.030Z,48.90
2024-02-14T11:40:33.492Z,48.80
2024-02-14T11:43:23.548Z,48.80
2024-02-14T11:46:12.045Z,48.70
2024-02-14T11:49:01.654Z,48.90
2024-02-14T11:51:50.196Z,49.10
2024-02-14T11:54:39.063Z,49.10
2024-02-14T11:57:28.529Z,49.10
2024-02-14T12:00:19.238Z,49.20
2024-02-14T12:03:09.823Z,49.30
2024-02-14T12:05:58.786Z,49.50
2024-02-14T12:08:47.305Z,49.30
2024-02-14T12:11:38.595Z,49.40
2024-02-14T12:14:29.152Z,49.40
2024-02-14T12:17:20.321Z,49.50
2024-02-14T12:20:11.786Z,49.60
2024-02-14T12:23:00.907Z,49.80
2024-02-14T12:25:49.481Z,49.90
2024-02-14T12:28:39.390Z,49.90
2024-02-14T12:31:27.965Z,49.90
2024-02-14T12:34:22.150Z,50.10
2024-02-14T12:37:12.678Z,50.10
2024-02-14T12:40:01.111Z,50.20
2024-02-14T12:42:49.536Z,50.20
2024-02-14T12:45:38.078Z,50.20
2024-02-14T12:48:28.244Z,50.30
2024-02-14T12:51:18.542Z,50.30
2024-02-14T12:54:08.697Z,50.30
2024-02-14T12:56:57.292Z,50.40
2024-02-14T12:59:47.050Z,50.50
2024-02-14T13:02:35.639Z,50.60
2024-02-14T13:05:24.162Z,50.60
2024-02-14T13:08:14.205Z,50.70
2024-02-14T13:11:02.570Z,50.70
2024-02-14T13:13:51.049Z,50.80
2024-02-14T13:16:40.214Z,50.90
2024-02-14T13:19:28.771Z,51.00
2024-02-14T13:22:17.235Z,51.20
2024-02-14T13:25:08.033Z,51.20
2024-02-14T13:27:56.680Z,51.20
2024-02-14T13:30:48.087Z,51.20
2024-02-14T13:33:37.019Z,51.20
2024-02-14T13:36:25.687Z,51.30
2024-02-14T13:39:14.868Z,51.30
2024-02-14T13:42:04.961Z,51.50
2024-02-14T13:44:55.710Z,51.70
2024-02-14T13:47:45.288Z,51.80
2024-02-14T13:50:33.960Z,52.20
2024-02-14T13:53:24.120Z,52.00
2024-02-14T13:56:12.735Z,52.10
2024-02-14T13:59:02.910Z,52.00
2024-02-14T14:01:51.520Z,52.30
2024-02-14T14:04:40.193Z,52.00
2024-02-14T14:07:28.607Z,51.90
2024-02-14T14:10:18.140Z,52.00
2024-02-14T14:13:09.630Z,52.10
2024-02-14T14:15:59.339Z,52.40
2024-02-14T14:18:48.718Z,52.80
2024-02-14T14:21:39.465Z,52.80
2024-02-14T14:24:31.062Z,52.70
2024-02-14T14:27:22.762Z,52.60
2024-02-14T14:30:13.319Z,52.60
2024-02-14T14:33:03.651Z,52.50
2024-02-14T14:35:54.050Z,52.60
2024-02-14T14:38:43.040Z,52.60
2024-02-14T14:41:32.346Z,52.70
2024-02-14T14:44:20.888Z,53.00
2024-02-14T14:47:12.604Z,53.10
2024-02-14T14:50:02.928Z,53.20
2024-02-14T14:52:52.078Z,53.30
2024-02-14T14:55:53.483Z,53.20
2024-02-14T14:58:43.781Z,53.30
2024-02-14T15:01:32.661Z,53.20
2024-02-14T15:04:21.524Z,53.30
2024-02-14T15:07:11.668Z,53.30
2024-02-14T15:10:00.414Z,53.00
2024-02-14T15:12:49.654Z,53.30
2024-02-14T15:15:38.359Z,53.40
2024-02-14T15:18:28.116Z,53.50
2024-02-14T15:21:16.799Z,53.60
2024-02-14T15:24:08.126Z,53.30
2024-02-14T15:27:02.030Z,53.40
2024-02-14T15:30:08.288Z,53.40
2024-02-14T15:33:16.149Z,53.30
2024-02-14T15:36:05.122Z,53.40
2024-02-14T15:38:54.178Z,53.50
2024-02-14T15:41:44.173Z,53.70
2024-02-14T15:44:32.547Z,53.90
2024-02-14T15:47:21.111Z,53.80
2024-02-14T15:50:11.514Z,53.90
2024-02-14T15:53:00.016Z,53.90
2024-02-14T15:55:48.774Z,53.90
2024-02-14T15:58:38.579Z,53.90
2024-02-14T16:01:27.023Z,53.80
2024-02-14T16:04:15.423Z,53.80
2024-02-14T16:07:04.623Z,53.90
2024-02-14T16:09:53.000Z,54.00
2024-02-14T16:12:43.908Z,54.10
2024-02-14T16:15:33.561Z,54.20
2024-02-14T16:18:22.041Z,54.00
2024-02-14T16:21:10.876Z,54.10
2024-02-14T16:23:59.304Z,54.20
2024-02-14T16:26:47.694Z,54.40
2024-02-14T16:29:39.277Z,54.20
2024-02-14T16:32:29.385Z,54.20
2024-02-14T16:35:17.841Z,54.30
2024-02-14T16:38:06.626Z,54.20
2024-02-14T16:40:55.150Z,54.40
2024-02-14T16:43:43.699Z,54.30
2024-02-14T16:46:32.748Z,54.40
2024-02-14T16:49:22.667Z,54.50
2024-02-14T16:52:11.167Z,54.50
2024-02-14T16:54:59.755Z,54.70
2024-02-14T16:57:48.138Z,54.60
2024-02-14T17:00:36.692Z,54.50
2024-02-14T17:03:25.915Z,54.50
2024-02-14T17:06:16.327Z,54.50
2024-02-14T17:09:05.115Z,54.40
2024-02-14T17:11:53.906Z,54.70
2024-02-14T17:14:43.998Z,54.60
2024-02-14T17:17:34.852Z,54.60
2024-02-14T17:20:23.479Z,54.50
2024-02-14T17:23:13.435Z,54.70
2024-02-14T17:26:02.192Z,54.50
2024-02-14T17:28:50.824Z,54.50
2024-02-14T17:31:39.550Z,54.50
2024-02-14T17:34:32.050Z,54.50
2024-02-14T17:37:20.625Z,54.50
2024-02-14T17:40:12.082Z,54.60
2024-02-14T17:43:00.634Z,54.60
2024-02-14T17:45:49.469Z,54.60
2024-02-14T17:48:38.477Z,54.70
2024-02-14T17:51:28.942Z,54.70
2024-02-14T17:54:18.747Z,54.60
2024-02-14T17:57:10.651Z,54.60
2024-02-14T18:00:00.428Z,54.70
2024-02-14T18:02:49.323Z,54.60
2024-02-14T18:05:42.553Z,55.50
2024-02-14T18:08:31.799Z,55.30
2024-02-14T18:11:20.459Z,55.00
2024-02-14T18:14:10.714Z,55.10
2024-02-14T18:17:00.379Z,55.00
2024-02-14T18:19:49.329Z,55.00
2024-02-14T18:22:38.643Z,55.20
2024-02-14T18:25:27.770Z,55.10
2024-02-14T18:28:16.374Z,55.10
2024-02-14T18:31:09.533Z,55.00
2024-02-14T18:33:58.124Z,55.10
2024-02-14T18:36:46.919Z,55.10
2024-02-14T18:39:35.440Z,55.10
2024-02-14T18:42:24.011Z,55.10
2024-02-14T18:45:13.503Z,55.00
2024-02-14T18:48:03.812Z,55.10
2024-02-14T18:50:52.852Z,55.40
2024-02-14T18:53:42.725Z,55.10
2024-02-14T18:56:31.430Z,55.00
2024-02-14T18:59:20.092Z,55.00
2024-02-14T19:02:09.420Z,55.00
2024-02-14T19:04:59.372Z,54.90
2024-02-14T19:07:48.068Z,55.00
2024-02-14T19:10:36.957Z,55.10
2024-02-14T19:13:26.956Z,54.90
2024-02-14T19:16:24.186Z,55.20
2024-02-14T19:19:17.197Z,55.10
2024-02-14T19:22:07.731Z,55.00
2024-02-14T19:24:56.252Z,55.00
2024-02-14T19:27:44.685Z,54.90
2024-02-14T19:30:33.190Z,55.10
2024-02-14T19:33:21.875Z,55.00
2024-02-14T19:36:11.381Z,55.10
2024-02-14T19:39:01.362Z,55.10
2024-02-14T19:41:50.043Z,55.10
2024-02-14T19:44:38.692Z,55.10
2024-02-14T19:47:27.953Z,55.10
2024-02-14T19:50:16.463Z,55.00
2024-02-14T19:53:05.354Z,55.00
2024-02-14T19:55:55.784Z,55.00
2024-02-14T19:58:44.209Z,54.80
2024-02-14T20:01:32.569Z,54.90
2024-02-14T20:04:21.286Z,54.90
2024-02-14T20:07:09.778Z,54.90
2024-02-14T20:09:58.206Z,54.80
2024-02-14T20:12:48.041Z,54.80
2024-02-14T20:15:37.424Z,54.90
2024-02-14T20:18:26.028Z,54.80
2024-02-14T20:21:16.790Z,54.80
2024-02-14T20:24:06.893Z,54.80
2024-02-14T20:26:55.673Z,54.70
2024-02-14T20:29:45.522Z,54.80
2024-02-14T20:32:34.086Z,54.80
2024-02-14T20:35:22.482Z,55.00
2024-02-14T20:38:33.999Z,54.90
2024-02-14T20:41:28.120Z,54.70
2024-02-14T20:44:16.886Z,54.80
2024-02-14T20:47:07.613Z,54.70
2024-02-14T20:49:59.147Z,54.60
2024-02-14T20:52:47.958Z,54.60
2024-02-14T20:55:38.569Z,54.70
2024-02-14T20:58:27.414Z,54.90
2024-02-14T21:01:26.097Z,54.90
2024-02-14T21:04:16.159Z,54.90
2024-02-14T21:07:04.874Z,54.90
2024-02-14T21:09:53.428Z,55.00
2024-02-14T21:12:42.498Z,55.00
2024-02-14T21:15:30.907Z,55.00
2024-02-14T21:18:19.409Z,55.10
2024-02-14T21:21:09.970Z,55.20
2024-02-14T21:23:59.238Z,55.20
2024-02-14T21:26:49.889Z,55.30
2024-02-14T21:29:38.353Z,55.30
2024-02-14T21:32:26.892Z,55.40
2024-02-14T21:35:16.131Z,55.40
2024-02-14T21:38:06.708Z,55.40
2024-02-14T21:40:55.180Z,55.50
2024-02-14T21:43:43.515Z,55.60
2024-02-14T21:46:32.217Z,55.70
2024-02-14T21:49:21.726Z,55.70
2024-02-14T21:52:11.193Z,55.70
2024-02-14T21:55:01.157Z,55.70
2024-02-14T21:57:50.123Z,56.00
2024-02-14T22:00:38.525Z,56.20
2024-02-14T22:03:29.519Z,56.10
2024-02-14T22:06:18.029Z,56.30
2024-02-14T22:09:07.282Z,56.20
2024-02-14T22:11:57.419Z,56.30
2024-02-14T22:14:46.865Z,56.30
2024-02-14T22:17:35.607Z,56.30
2024-02-14T22:20:25.279Z,56.50
2024-02-14T22:23:14.042Z,56.50
2024-02-14T22:26:03.034Z,56.60
2024-02-14T22:28:53.400Z,56.80
2024-02-14T22:31:41.872Z,56.70
2024-02-14T22:34:30.359Z,56.70
2024-02-14T22:37:18.695Z,56.80
2024-02-14T22:40:08.531Z,57.00
2024-02-14T22:42:57.061Z,56.70
2024-02-14T22:45:47.814Z,56.60
2024-02-14T22:48:36.381Z,56.70
2024-02-14T22:51:24.939Z,56.70
2024-02-14T22:54:14.732Z,56.90
2024-02-14T22:57:04.700Z,56.90
2024-02-14T22:59:54.654Z,57.20
2024-02-14T23:02:45.142Z,57.00
2024-02-14T23:05:34.761Z,56.90
2024-02-14T23:08:24.975Z,56.90
2024-02-14T23:11:13.903Z,57.10
2024-02-14T23:14:02.395Z,57.00
2024-02-14T23:16:50.801Z,56.90
2024-02-14T23:19:41.137Z,56.90
2024-02-14T23:22:29.653Z,56.90
2024-02-14T23:25:18.456Z,57.00
2024-02-14T23:28:07.144Z,57.10
2024-02-14T23:30:55.631Z,57.00
2024-02-14T23:33:45.354Z,57.10
2024-02-14T23:36:35.270Z,57.10
2024-02-14T23:39:25.004Z,57.10
2024-02-14T23:42:13.442Z,57.10
2024-02-14T23:45:02.485Z,57.10
2024-02-14T23:47:51.222Z,57.20
2024-02-14T23:50:39.809Z,57.20
2024-02-14T23:53:29.598Z,57.20
2024-02-14T23:56:18.013Z,57.30
2024-02-14T23:59:06.354Z,57.30
